Time;durP1;ratioP1;P1;durP2;ratioP2;P2;SDS_P1;SDS_P2;PMS_P1;PMS_P2;Temp;Humidity;BMP_temperature;BMP_pressure;BME280_temperature;BME280_humidity;BME280_pressure;Samples;Min_cycle;Max_cycle;Signal;HPM_P1;HPM_P2
2024/01/30 12:53:30;;;;;;;;;2.00;2.00;;;;;12.96;100.00;102791.31;5655671;23;46435;-72
2024/01/30 12:55:55;;;;;;;;;3.00;2.00;;;;;13.03;100.00;102798.72;4953555;28;46479;-73
2024/01/30 12:58:21;;;;;;;;;3.00;3.00;;;;;12.76;100.00;102739.94;4954726;28;45458;-75
2024/01/30 13:00:47;;;;;;;;;2.33;2.33;;;;;13.02;100.00;102785.38;4959880;28;46279;-73
2024/01/30 13:03:12;;;;;;;;;2.00;2.00;;;;;13.08;100.00;102778.63;4938946;28;45491;-73
2024/01/30 13:05:38;;;;;;;;;3.00;2.67;;;;;13.16;100.00;102793.16;4960226;28;45496;-72
2024/01/30 13:08:03;;;;;;;;;2.00;2.00;;;;;13.07;100.00;102771.47;4957463;28;45583;-74
2024/01/30 13:10:29;;;;;;;;;3.67;3.33;;;;;13.20;100.00;102784.47;4965505;28;46534;-73
2024/01/30 13:12:54;;;;;;;;;2.00;2.00;;;;;13.04;100.00;102743.88;4957449;28;45327;-73
2024/01/30 13:15:20;;;;;;;;;2.00;2.00;;;;;13.27;100.00;102784.78;4959658;28;45938;-73
2024/01/30 13:17:48;;;;;;;;;1.33;1.33;;;;;13.02;100.00;102740.22;4947176;28;45362;-73
2024/01/30 13:20:16;;;;;;;;;2.33;2.00;;;;;13.29;100.00;102786.66;4959796;28;46205;-73
2024/01/30 13:22:43;;;;;;;;;2.00;2.00;;;;;13.27;100.00;102796.28;4958274;28;45409;-72
2024/01/30 13:25:08;;;;;;;;;1.00;1.00;;;;;13.06;100.00;102761.69;4959321;28;45390;-73
2024/01/30 13:27:34;;;;;;;;;1.67;0.00;;;;;13.11;100.00;102773.44;4957142;28;45469;-73
2024/01/30 13:29:59;;;;;;;;;1.00;1.00;;;;;13.03;100.00;102761.56;4941883;28;46666;-72
2024/01/30 13:32:25;;;;;;;;;1.67;1.00;;;;;13.26;100.00;102790.94;4959256;28;45295;-73
2024/01/30 13:34:50;;;;;;;;;2.00;2.00;;;;;13.13;100.00;102768.19;4957013;28;45228;-73
2024/01/30 13:37:15;;;;;;;;;1.33;1.00;;;;;12.91;100.00;102724.75;4941840;28;46055;-73
2024/01/30 13:39:41;;;;;;;;;3.00;1.00;;;;;12.88;100.00;102727.25;4937275;28;45671;-73
2024/01/30 13:42:06;;;;;;;;;2.00;1.00;;;;;13.11;100.00;102764.56;4942196;28;45457;-74
2024/01/30 13:44:32;;;;;;;;;1.00;1.00;;;;;12.91;100.00;102722.09;4956786;28;60714;-74
2024/01/30 13:46:57;;;;;;;;;0.00;0.00;;;;;13.14;100.00;102762.06;4959158;28;45222;-73
2024/01/30 13:49:23;;;;;;;;;1.00;1.00;;;;;13.15;100.00;102761.19;4957251;28;49635;-74
2024/01/30 13:51:48;;;;;;;;;1.00;1.00;;;;;13.28;100.00;102790.16;4960638;28;45319;-74
2024/01/30 13:54:15;;;;;;;;;1.00;1.00;;;;;13.23;100.00;102774.84;4950741;28;46196;-74
2024/01/30 13:56:41;;;;;;;;;1.00;1.00;;;;;13.18;100.00;102771.97;4943156;28;45343;-74
2024/01/30 13:59:07;;;;;;;;;1.33;1.33;;;;;13.20;100.00;102775.59;4939867;28;45460;-74
2024/01/30 14:01:32;;;;;;;;;0.00;0.00;;;;;13.37;100.00;102802.94;4944730;28;45440;-74
2024/01/30 14:03:57;;;;;;;;;1.00;1.00;;;;;12.92;100.00;102723.91;4939861;28;46939;-75
2024/01/30 14:06:23;;;;;;;;;1.00;1.00;;;;;13.20;100.00;102778.25;4925321;28;49350;-74
2024/01/30 14:08:48;;;;;;;;;0.67;0.67;;;;;13.36;100.00;102793.16;4938576;28;45427;-74
2024/01/30 14:11:13;;;;;;;;;1.00;0.00;;;;;13.38;100.00;102792.38;4939794;28;62645;-74
2024/01/30 14:13:39;;;;;;;;;1.00;1.00;;;;;12.99;100.00;102731.31;4921050;28;45444;-74
2024/01/30 14:16:06;;;;;;;;;2.00;2.00;;;;;13.45;100.00;102808.63;4939505;28;45584;-75
2024/01/30 14:18:31;;;;;;;;;1.00;1.00;;;;;13.33;100.00;102795.66;4930697;28;46165;-74
2024/01/30 14:20:56;;;;;;;;;1.00;1.00;;;;;13.30;100.00;102793.78;4936713;28;49445;-75
2024/01/30 14:23:21;;;;;;;;;2.00;1.00;;;;;13.31;100.00;102795.63;4928993;28;47669;-74
2024/01/30 14:25:47;;;;;;;;;1.00;1.00;;;;;13.28;100.00;102808.75;4922083;28;45730;-75
2024/01/30 14:28:12;;;;;;;;;1.00;1.00;;;;;13.18;100.00;102801.16;4916607;28;46850;-74
2024/01/30 14:30:37;;;;;;;;;0.00;0.00;;;;;13.15;100.00;102820.53;4946839;28;45365;-74
2024/01/30 14:33:03;;;;;;;;;2.00;0.00;;;;;13.08;100.00;102809.53;4941677;28;46698;-74
2024/01/30 14:35:28;;;;;;;;;0.00;0.00;;;;;13.02;100.00;102817.22;4944543;28;45568;-74
2024/01/30 14:37:54;;;;;;;;;1.67;0.00;;;;;12.84;100.00;102796.94;4938676;28;45435;-74
2024/01/30 14:40:19;;;;;;;;;2.00;0.00;;;;;12.91;100.00;102824.69;4946860;28;54937;-75
2024/01/30 14:42:45;;;;;;;;;0.00;0.00;;;;;12.93;100.00;102825.66;4932750;28;45241;-74
2024/01/30 14:45:11;;;;;;;;;0.00;0.00;;;;;12.96;100.00;102839.97;4947765;28;45568;-75
2024/01/30 14:47:37;;;;;;;;;0.00;0.00;;;;;12.81;100.00;102803.88;4921769;28;47014;-75
2024/01/30 14:50:04;;;;;;;;;0.00;0.00;;;;;13.13;100.00;102842.53;4945946;28;45451;-74
2024/01/30 14:52:29;;;;;;;;;1.00;1.00;;;;;13.22;100.00;102837.66;4932702;28;45317;-74
2024/01/30 14:54:55;;;;;;;;;0.50;0.50;;;;;13.28;100.00;102845.94;4956609;28;45461;-74
2024/01/30 14:57:20;;;;;;;;;1.00;0.00;;;;;13.06;100.00;102805.94;4943564;28;46819;-74
2024/01/30 14:59:45;;;;;;;;;0.00;0.00;;;;;13.28;100.00;102860.97;4953774;28;45272;-75
2024/01/30 15:02:11;;;;;;;;;0.00;0.00;;;;;13.06;100.00;102821.84;4962289;28;45417;-74
2024/01/30 15:04:36;;;;;;;;;1.00;1.00;;;;;12.94;100.00;102820.44;4952278;28;58417;-75
2024/01/30 15:07:02;;;;;;;;;0.00;0.00;;;;;12.91;100.00;102830.94;4961956;28;62439;-74
2024/01/30 15:09:27;;;;;;;;;0.00;0.00;;;;;12.98;100.00;102864.88;4953426;28;45501;-74
2024/01/30 15:11:53;;;;;;;;;0.00;0.00;;;;;12.91;100.00;102857.47;4961508;28;52227;-75
2024/01/30 15:14:18;;;;;;;;;0.00;0.00;;;;;12.68;100.00;102834.19;4956626;28;45286;-76
2024/01/30 15:16:44;;;;;;;;;0.00;0.00;;;;;12.71;100.00;102850.25;4960683;28;55888;-74
2024/01/30 15:19:10;;;;;;;;;1.00;1.00;;;;;12.50;100.00;102821.88;4952784;28;45360;-74
2024/01/30 15:21:35;;;;;;;;;0.67;0.67;;;;;12.50;100.00;102829.81;4961732;28;44727;-74
2024/01/30 15:24:02;;;;;;;;;0.00;0.00;;;;;12.53;100.00;102848.53;4957327;28;45520;-74
2024/01/30 15:26:27;;;;;;;;;0.00;0.00;;;;;12.60;100.00;102862.09;4973672;28;45641;-74
2024/01/30 15:28:52;;;;;;;;;1.00;1.00;;;;;12.53;100.00;102858.25;4962161;28;45390;-74
2024/01/30 15:31:17;;;;;;;;;1.33;0.00;;;;;12.45;100.00;102843.69;4974509;28;45322;-74
2024/01/30 15:33:43;;;;;;;;;1.00;0.67;;;;;12.54;100.00;102868.91;4962769;28;44816;-74
2024/01/30 15:36:09;;;;;;;;;1.00;1.00;;;;;12.31;100.00;102843.91;4943732;28;47237;-74
2024/01/30 15:38:34;;;;;;;;;0.00;0.00;;;;;12.22;100.00;102837.25;4957724;28;45445;-74
2024/01/30 15:41:00;;;;;;;;;1.00;1.00;;;;;12.38;100.00;102868.06;4960256;28;45259;-74
2024/01/30 15:43:27;;;;;;;;;2.00;1.00;;;;;12.44;100.00;102876.38;4959515;28;45235;-74
2024/01/30 15:45:53;;;;;;;;;0.00;0.00;;;;;12.44;100.00;102879.94;4961267;28;46503;-74
2024/01/30 15:48:19;;;;;;;;;0.67;0.67;;;;;12.26;100.00;102857.78;4959309;28;45453;-74
2024/01/30 15:50:44;;;;;;;;;1.00;0.00;;;;;12.28;100.00;102864.97;4961515;28;45216;-74
2024/01/30 15:53:10;;;;;;;;;1.00;1.00;;;;;12.23;100.00;102862.91;4958924;28;45267;-74
2024/01/30 15:55:35;;;;;;;;;1.00;1.00;;;;;11.96;100.00;102833.25;4961125;28;46839;-74
2024/01/30 15:58:00;;;;;;;;;2.00;0.00;;;;;12.16;100.00;102885.56;4960357;28;45418;-73
2024/01/30 16:00:26;;;;;;;;;1.00;1.00;;;;;11.97;100.00;102859.84;4956666;28;45401;-74
2024/01/30 16:02:51;;;;;;;;;1.00;1.00;;;;;11.86;100.00;102859.28;4960108;28;45410;-73
2024/01/30 16:05:17;;;;;;;;;0.00;0.00;;;;;11.77;100.00;102860.53;4956560;28;45404;-74
2024/01/30 16:07:42;;;;;;;;;1.33;1.00;;;;;11.98;100.00;102914.66;4959613;28;45333;-72
2024/01/30 16:10:08;;;;;;;;;0.00;0.00;;;;;11.45;100.00;102825.28;4957595;28;45315;-74
2024/01/30 16:12:34;;;;;;;;;1.00;1.00;;;;;11.90;100.00;102915.09;4961166;28;45347;-74
2024/01/30 16:14:59;;;;;;;;;0.33;0.33;;;;;11.69;100.00;102891.00;4958109;28;45332;-74
2024/01/30 16:17:25;;;;;;;;;0.00;0.00;;;;;11.51;100.00;102867.06;4944664;28;45396;-74
2024/01/30 16:19:51;;;;;;;;;1.67;1.67;;;;;11.52;100.00;102893.66;4954359;28;45180;-74
2024/01/30 16:22:16;;;;;;;;;2.67;1.67;;;;;11.61;100.00;102925.94;4961008;28;45418;-74
2024/01/30 16:24:42;;;;;;;;;0.67;0.67;;;;;11.52;100.00;102917.50;4954230;28;46547;-74
2024/01/30 16:27:07;;;;;;;;;2.33;2.33;;;;;11.50;100.00;102919.13;4941283;28;45291;-74
2024/01/30 16:29:33;;;;;;;;;3.67;2.67;;;;;11.45;100.00;102922.38;4957480;28;45233;-74
2024/01/30 16:31:58;;;;;;;;;3.00;3.00;;;;;11.37;100.00;102928.16;4950367;28;46143;-74
2024/01/30 16:34:23;;;;;;;;;4.33;3.67;;;;;11.24;100.00;102907.13;4953575;28;45972;-74
2024/01/30 16:36:49;;;;;;;;;3.33;2.00;;;;;11.38;100.00;102942.31;4961001;28;45303;-74
2024/01/30 16:39:14;;;;;;;;;1.00;1.00;;;;;11.13;100.00;102910.91;4954312;28;45260;-76
2024/01/30 16:41:40;;;;;;;;;2.33;2.00;;;;;11.07;100.00;102915.88;4964176;28;45356;-74
2024/01/30 16:44:05;;;;;;;;;1.67;1.67;;;;;11.02;100.00;102926.19;4954706;28;45709;-75
2024/01/30 16:46:32;;;;;;;;;2.00;2.00;;;;;10.94;100.00;102924.84;4942913;28;45272;-75
2024/01/30 16:48:57;;;;;;;;;3.00;2.00;;;;;10.94;100.00;102946.91;4938182;28;45517;-75
2024/01/30 16:51:23;;;;;;;;;1.00;1.00;;;;;10.75;100.00;102917.56;4960135;28;45555;-75
2024/01/30 16:53:48;;;;;;;;;1.00;1.00;;;;;10.85;100.00;102956.97;4958492;28;56112;-75
2024/01/30 16:56:14;;;;;;;;;1.00;1.00;;;;;10.74;100.00;102952.78;4960250;28;45483;-75
2024/01/30 16:58:39;;;;;;;;;1.00;1.00;;;;;10.76;100.00;102982.91;4958357;28;46028;-75
2024/01/30 17:01:05;;;;;;;;;0.00;0.00;;;;;10.65;100.00;102974.31;4952560;28;47271;-75
2024/01/30 17:03:30;;;;;;;;;3.00;2.00;;;;;10.46;100.00;102958.19;4957306;28;46396;-75
2024/01/30 17:05:58;;;;;;;;;2.25;1.00;;;;;10.42;100.00;102972.03;4953412;28;45232;-75
2024/01/30 17:08:24;;;;;;;;;2.25;2.25;;;;;10.44;100.00;102984.53;4958008;28;45216;-74
2024/01/30 17:10:50;;;;;;;;;2.50;2.00;;;;;10.35;100.00;102986.63;4960032;28;45740;-74
2024/01/30 17:13:16;;;;;;;;;3.75;2.00;;;;;10.27;100.00;102980.88;4926800;28;45325;-75
2024/01/30 17:15:42;;;;;;;;;2.00;2.00;;;;;10.35;100.00;103001.59;4958588;28;45325;-75
2024/01/30 17:18:07;;;;;;;;;3.00;3.00;;;;;10.28;100.00;103002.94;4956129;28;45252;-75
2024/01/30 17:20:32;;;;;;;;;3.00;2.00;;;;;9.98;100.00;102957.94;4957755;28;45454;-75
2024/01/30 17:22:59;;;;;;;;;3.50;3.50;;;;;10.06;100.00;102996.31;4968988;28;47193;-75
2024/01/30 17:25:25;;;;;;;;;2.75;2.00;;;;;10.08;100.00;102996.38;4956615;28;45414;-75
2024/01/30 17:27:51;;;;;;;;;4.25;4.25;;;;;10.03;100.00;103000.50;4940828;28;45453;-75
2024/01/30 17:30:23;;;;;;;;;5.00;4.00;;;;;9.93;100.00;102998.09;4954828;28;45215;-75
2024/01/30 17:32:49;;;;;;;;;3.75;3.00;;;;;9.76;100.00;102967.97;4954875;28;45573;-75
2024/01/30 17:35:15;;;;;;;;;4.00;4.00;;;;;9.85;100.00;102987.03;4966225;28;45314;-75
2024/01/30 17:37:40;;;;;;;;;4.00;4.00;;;;;9.70;100.00;102973.78;4969858;28;45793;-75
2024/01/30 17:40:06;;;;;;;;;5.25;3.00;;;;;9.71;100.00;102978.25;4945270;28;47053;-76
2024/01/30 17:42:32;;;;;;;;;5.75;2.00;;;;;9.56;100.00;102959.72;4969950;28;45351;-76
2024/01/30 17:44:58;;;;;;;;;7.00;4.00;;;;;9.75;100.00;103004.06;4966181;28;45284;-75
2024/01/30 17:47:24;;;;;;;;;5.00;3.50;;;;;9.44;100.00;102958.03;4951224;28;44799;-75
2024/01/30 17:49:49;;;;;;;;;5.25;4.25;;;;;9.67;100.00;103007.03;4964585;28;55529;-75
2024/01/30 17:52:16;;;;;;;;;5.00;3.25;;;;;9.55;100.00;102984.31;4966817;28;45387;-75
2024/01/30 17:54:41;;;;;;;;;4.50;4.50;;;;;9.47;100.00;102968.81;4962734;28;45601;-75
2024/01/30 17:57:06;;;;;;;;;4.25;4.25;;;;;9.70;100.00;103009.88;4957083;28;49843;-75
2024/01/30 17:59:31;;;;;;;;;4.25;4.00;;;;;9.64;100.00;103007.75;4954918;28;45358;-75
2024/01/30 18:01:57;;;;;;;;;9.50;7.25;;;;;9.62;100.00;103009.38;4970173;28;45386;-79
2024/01/30 18:04:22;;;;;;;;;7.25;7.25;;;;;9.59;100.00;103004.81;4962117;28;45390;-78
2024/01/30 18:06:55;;;;;;;;;4.00;2.00;;;;;9.48;100.00;102995.28;4962713;28;45849;-77
2024/01/30 18:09:21;;;;;;;;;3.00;3.00;;;;;9.55;100.00;103001.84;4954779;28;45482;-79
2024/01/30 18:11:47;;;;;;;;;4.25;3.50;;;;;9.64;100.00;103013.94;4962586;28;45982;-78
2024/01/30 18:14:13;;;;;;;;;7.00;5.25;;;;;9.57;100.00;102997.59;4944728;28;45493;-78
2024/01/30 18:16:38;;;;;;;;;6.00;5.00;;;;;9.61;100.00;103007.56;4963570;28;45446;-77
2024/01/30 18:19:03;;;;;;;;;7.50;5.25;;;;;9.74;100.00;103030.34;4964813;28;45535;-78
2024/01/30 18:21:29;;;;;;;;;4.50;3.00;;;;;9.67;100.00;103025.50;4965934;28;45404;-76
2024/01/30 18:23:54;;;;;;;;;5.25;4.25;;;;;9.33;100.00;102968.81;4958084;28;53788;-76
2024/01/30 18:26:19;;;;;;;;;3.00;3.00;;;;;9.52;100.00;103015.81;4953898;28;45530;-76
2024/01/30 18:28:45;;;;;;;;;8.75;5.00;;;;;9.66;100.00;103037.78;4955497;28;45337;-77
2024/01/30 18:31:10;;;;;;;;;3.00;3.00;;;;;9.72;100.00;103042.53;4948022;28;47132;-78
2024/01/30 18:33:35;;;;;;;;;7.00;6.25;;;;;9.41;100.00;102990.44;4958359;28;45347;-77
2024/01/30 18:36:01;;;;;;;;;6.25;4.00;;;;;9.48;100.00;103004.94;4962969;28;45435;-77
2024/01/30 18:38:26;;;;;;;;;6.00;6.00;;;;;9.65;100.00;103041.25;4956059;28;44745;-79
2024/01/30 18:40:52;;;;;;;;;9.50;6.00;;;;;9.57;100.00;103030.19;4949255;28;48033;-76
2024/01/30 18:43:18;;;;;;;;;5.50;4.75;;;;;9.52;100.00;103022.78;4948371;28;45507;-76
2024/01/30 18:45:52;;;;;;;;;5.00;4.50;;;;;9.65;100.00;103057.09;4962289;28;45359;-77
2024/01/30 18:48:17;;;;;;;;;5.75;5.75;;;;;9.41;100.00;103019.47;4957836;28;46026;-76
2024/01/30 18:50:43;;;;;;;;;6.25;6.25;;;;;9.39;100.00;103005.25;4961811;28;46345;-77
2024/01/30 18:53:08;;;;;;;;;6.75;6.75;;;;;9.52;100.00;103022.78;4958787;28;45506;-78
2024/01/30 18:55:33;;;;;;;;;5.75;5.00;;;;;9.57;100.00;103046.03;4962551;28;45240;-77
2024/01/30 18:57:59;;;;;;;;;4.50;4.50;;;;;9.54;100.00;103037.00;4960439;28;49559;-76
2024/01/30 19:00:24;;;;;;;;;5.25;5.25;;;;;9.44;100.00;103029.28;4962732;28;53040;-77
2024/01/30 19:02:49;;;;;;;;;5.00;5.00;;;;;9.38;100.00;103027.16;4962128;28;45152;-76
2024/01/30 19:05:14;;;;;;;;;6.25;4.75;;;;;9.38;100.00;103036.03;4965910;28;45370;-78
2024/01/30 19:07:40;;;;;;;;;7.00;5.25;;;;;9.40;100.00;103046.66;4963976;28;52442;-80
2024/01/30 19:10:05;;;;;;;;;7.00;5.25;;;;;9.43;100.00;103062.69;4962961;28;45478;-80
2024/01/30 19:12:31;;;;;;;;;12.00;7.00;;;;;9.39;100.00;103060.69;4964774;28;45405;-79
2024/01/30 19:14:57;;;;;;;;;7.25;4.25;;;;;9.25;100.00;103054.50;4960491;28;45476;-78
2024/01/30 19:17:24;;;;;;;;;7.75;6.00;;;;;9.22;100.00;103054.31;4959460;28;58313;-79
2024/01/30 19:19:49;;;;;;;;;10.00;6.00;;;;;9.28;100.00;103072.28;4946501;28;47215;-76
2024/01/30 19:22:14;;;;;;;;;7.00;6.00;;;;;9.25;100.00;103072.97;4954060;28;45343;-76
2024/01/30 19:24:40;;;;;;;;;10.50;10.00;;;;;8.98;100.00;103032.47;4953531;28;45442;-77
2024/01/30 19:27:05;;;;;;;;;9.75;6.25;;;;;9.18;100.00;103073.38;4948403;28;53926;-76
2024/01/30 19:29:30;;;;;;;;;7.00;7.00;;;;;8.90;100.00;103038.97;4957267;28;60553;-76
2024/01/30 19:31:56;;;;;;;;;9.00;7.00;;;;;8.93;100.00;103060.25;4961906;28;45326;-76
2024/01/30 19:34:21;;;;;;;;;20.50;18.50;;;;;9.02;100.00;103078.41;4956514;28;45299;-75
2024/01/30 19:36:47;;;;;;;;;11.75;11.50;;;;;8.84;100.00;103050.00;4961585;28;45448;-75
2024/01/30 19:39:13;;;;;;;;;12.75;12.50;;;;;8.93;100.00;103073.44;4955520;28;45457;-76
2024/01/30 19:41:39;;;;;;;;;13.00;11.75;;;;;8.87;100.00;103067.75;4951207;28;45440;-76
2024/01/30 19:44:05;;;;;;;;;12.25;10.75;;;;;8.74;100.00;103050.22;4956796;28;45331;-76
2024/01/30 19:46:30;;;;;;;;;12.75;11.50;;;;;8.75;100.00;103059.94;4961179;28;48524;-76
2024/01/30 19:48:55;;;;;;;;;14.00;13.00;;;;;8.57;100.00;103034.94;4957971;28;45420;-77
2024/01/30 19:51:20;;;;;;;;;14.00;14.00;;;;;8.67;100.00;103066.41;4961349;28;45210;-76
2024/01/30 19:53:46;;;;;;;;;18.00;15.00;;;;;8.66;100.00;103065.50;4958921;28;45762;-79
2024/01/30 19:56:11;;;;;;;;;13.00;13.00;;;;;8.49;100.00;103051.16;4961265;28;45356;-75
2024/01/30 19:58:36;;;;;;;;;20.25;16.75;;;;;8.46;100.00;103058.88;4958733;28;61272;-80
2024/01/30 20:01:02;;;;;;;;;16.00;13.50;;;;;8.57;100.00;103093.88;4960924;28;54777;-77
2024/01/30 20:03:28;;;;;;;;;23.00;18.00;;;;;8.48;100.00;103082.66;4958697;28;45294;-78
2024/01/30 20:05:53;;;;;;;;;21.50;20.00;;;;;8.36;100.00;103080.06;4948929;28;45958;-76
2024/01/30 20:08:18;;;;;;;;;28.50;25.00;;;;;8.18;100.00;103058.63;4958965;28;45266;-77
2024/01/30 20:10:44;;;;;;;;;27.50;23.75;;;;;7.82;100.00;102999.91;4961059;28;45390;-76
2024/01/30 20:13:09;;;;;;;;;27.00;25.75;;;;;8.18;100.00;103084.06;4948820;28;45330;-77
2024/01/30 20:15:35;;;;;;;;;29.50;25.25;;;;;8.19;100.00;103096.41;4960812;28;45462;-77
2024/01/30 20:18:00;;;;;;;;;20.75;20.75;;;;;7.92;100.00;103054.13;4958125;28;45438;-76
2024/01/30 20:20:25;;;;;;;;;24.50;18.50;;;;;7.92;100.00;103071.66;4967897;28;45393;-77
2024/01/30 20:22:51;;;;;;;;;27.25;24.75;;;;;7.95;100.00;103085.03;4965598;28;45557;-78
2024/01/30 20:25:16;;;;;;;;;24.50;20.50;;;;;7.72;100.00;103052.69;4959127;28;48995;-77
2024/01/30 20:27:41;;;;;;;;;26.25;24.25;;;;;8.06;100.00;103124.50;4967150;28;45411;-79
2024/01/30 20:30:10;;;;;;;;;33.25;26.75;;;;;7.91;100.00;103101.44;4955191;28;45204;-76
2024/01/30 20:32:37;;;;;;;;;36.75;32.25;;;;;7.88;100.00;103107.38;4959155;28;45240;-76
2024/01/30 20:35:06;;;;;;;;;29.25;24.50;;;;;7.76;100.00;103085.44;4950026;28;45616;-77
2024/01/30 20:37:32;;;;;;;;;31.50;25.25;;;;;7.77;100.00;103105.69;4950023;28;45366;-77
2024/01/30 20:39:57;;;;;;;;;41.25;31.25;;;;;7.69;100.00;103096.31;4959563;28;45296;-79
2024/01/30 20:42:22;;;;;;;;;39.50;35.25;;;;;7.70;100.00;103109.63;4951651;28;50598;-80
2024/01/30 20:44:47;;;;;;;;;35.00;29.50;;;;;7.72;100.00;103126.41;4958239;28;45599;-79
2024/01/30 20:47:13;;;;;;;;;29.75;28.00;;;;;7.48;100.00;103093.97;4948852;28;63670;-78
2024/01/30 20:49:38;;;;;;;;;39.75;35.25;;;;;7.57;100.00;103120.94;4958254;28;48545;-79
2024/01/30 20:52:04;;;;;;;;;39.25;33.25;;;;;7.33;100.00;103087.53;4954530;28;45197;-80
2024/01/30 20:54:31;;;;;;;;;38.00;35.00;;;;;7.41;100.00;103096.94;4956636;28;45201;-81
2024/01/30 20:56:56;;;;;;;;;36.75;34.50;;;;;7.56;100.00;103137.56;4962595;28;45546;-76
2024/01/30 20:59:21;;;;;;;;;42.50;35.50;;;;;7.37;100.00;103108.94;4961123;28;45442;-76
2024/01/30 21:01:47;;;;;;;;;39.50;37.50;;;;;7.43;100.00;103129.53;4962588;28;46448;-78
2024/01/30 21:04:12;;;;;;;;;40.25;34.75;;;;;7.46;100.00;103139.38;4960149;28;57170;-78
2024/01/30 21:06:37;;;;;;;;;44.00;37.00;;;;;7.43;100.00;103134.81;4959722;28;45349;-80
2024/01/30 21:09:03;;;;;;;;;46.00;36.75;;;;;7.47;100.00;103147.38;4957968;28;45307;-76
2024/01/30 21:11:28;;;;;;;;;39.25;35.50;;;;;7.08;100.00;103084.78;4961935;28;46358;-77
2024/01/30 21:13:53;;;;;;;;;41.50;35.25;;;;;7.04;100.00;103088.00;4960229;28;44874;-79
2024/01/30 21:16:19;;;;;;;;;52.00;36.75;;;;;7.25;100.00;103129.06;4959859;28;45315;-79
2024/01/30 21:18:44;;;;;;;;;45.00;38.25;;;;;7.36;100.00;103146.56;4958915;28;45200;-76
2024/01/30 21:21:10;;;;;;;;;57.00;43.00;;;;;7.36;100.00;103156.19;4960205;28;45401;-76
2024/01/30 21:23:36;;;;;;;;;54.75;46.25;;;;;7.17;100.00;103123.25;4956134;28;45508;-76
2024/01/30 21:26:03;;;;;;;;;51.50;40.50;;;;;7.00;100.00;103091.19;4958328;28;45478;-75
2024/01/30 21:28:29;;;;;;;;;49.00;41.75;;;;;7.16;100.00;103124.03;4957200;28;45372;-76
2024/01/30 21:30:55;;;;;;;;;58.75;48.00;;;;;7.26;100.00;103145.78;4958366;28;45458;-76
2024/01/30 21:33:20;;;;;;;;;54.00;43.75;;;;;6.88;100.00;103086.84;4954472;28;57978;-75
2024/01/30 21:35:45;;;;;;;;;54.25;44.25;;;;;7.28;100.00;103155.63;4959425;28;45729;-76
2024/01/30 21:38:11;;;;;;;;;52.25;44.00;;;;;7.15;100.00;103148.50;4956960;28;45434;-76
2024/01/30 21:40:36;;;;;;;;;64.25;51.50;;;;;7.06;100.00;103137.28;4951897;28;45403;-75
2024/01/30 21:43:02;;;;;;;;;64.50;52.00;;;;;7.23;100.00;103179.75;4956557;28;44917;-75
2024/01/30 21:45:28;;;;;;;;;67.25;55.00;;;;;7.07;100.00;103141.75;4959334;28;45540;-75
2024/01/30 21:47:53;;;;;;;;;71.25;53.50;;;;;7.20;100.00;103163.69;4949624;28;45539;-76
2024/01/30 21:50:19;;;;;;;;;65.75;51.00;;;;;7.26;100.00;103172.09;4948067;28;45351;-75
